AFL5718 UWGG-UUEE
Flight info
| Callsign | AFL5718 |
|---|---|
| Flight time | 0h 45m |
| Altitude | 30000 |
| Route | LARNO2U LARNO T291 URIDU L158 DIMGI DIMGI3E |
| Aircraft | MD88/M-SDFGIRWY/C |
Departure
| Time | 2026-04-22 06:37 |
|---|---|
| Airport | Nizhny Novgorod / Strigino International Airport (UWGG) |
Arrival
| Time | 2026-04-22 07:22 |
|---|---|
| Airport | Sheremetyevo International Airport (UUEE) |
| Time | Latitude | Longitude | Altitude | Speed | Heading |
|---|---|---|---|---|---|
| 2026-04-22 06:16 | 56.22128 | 43.78795 | 267 ft | 0 kts | 146° |
| 2026-04-22 06:29 | 56.22125 | 43.78798 | 267 ft | 2 kts | 146° |
| 2026-04-22 06:29 | 56.22094 | 43.78835 | 266 ft | 7 kts | 151° |
| 2026-04-22 06:30 | 56.22079 | 43.78833 | 266 ft | 1 kts | 200° |
| 2026-04-22 06:30 | 56.22074 | 43.78820 | 266 ft | 3 kts | 236° |
| 2026-04-22 06:30 | 56.22072 | 43.78792 | 267 ft | 3 kts | 275° |
| 2026-04-22 06:30 | 56.22089 | 43.78732 | 267 ft | 9 kts | 306° |
| 2026-04-22 06:31 | 56.22119 | 43.78706 | 267 ft | 5 kts | 354° |
| 2026-04-22 06:31 | 56.22180 | 43.78726 | 267 ft | 12 kts | 12° |
| 2026-04-22 06:31 | 56.22287 | 43.78764 | 267 ft | 19 kts | 11° |
| 2026-04-22 06:31 | 56.22419 | 43.78814 | 267 ft | 19 kts | 18° |
| 2026-04-22 06:32 | 56.22546 | 43.78881 | 266 ft | 19 kts | 11° |
| 2026-04-22 06:32 | 56.22671 | 43.78925 | 266 ft | 18 kts | 11° |
| 2026-04-22 06:32 | 56.22792 | 43.78970 | 266 ft | 17 kts | 12° |
| 2026-04-22 06:32 | 56.22910 | 43.79015 | 266 ft | 17 kts | 12° |
| 2026-04-22 06:33 | 56.23030 | 43.79060 | 266 ft | 20 kts | 12° |
| 2026-04-22 06:33 | 56.23165 | 43.79109 | 266 ft | 20 kts | 11° |
| 2026-04-22 06:33 | 56.23299 | 43.79158 | 266 ft | 19 kts | 11° |
| 2026-04-22 06:33 | 56.23426 | 43.79204 | 266 ft | 19 kts | 11° |
| 2026-04-22 06:34 | 56.23553 | 43.79236 | 266 ft | 18 kts | 2° |
| 2026-04-22 06:34 | 56.23678 | 43.79244 | 266 ft | 18 kts | 2° |
| 2026-04-22 06:34 | 56.23800 | 43.79255 | 266 ft | 17 kts | 3° |
| 2026-04-22 06:34 | 56.23920 | 43.79266 | 266 ft | 17 kts | 3° |
| 2026-04-22 06:35 | 56.24032 | 43.79260 | 266 ft | 15 kts | 341° |
| 2026-04-22 06:35 | 56.24083 | 43.79184 | 266 ft | 7 kts | 304° |
| 2026-04-22 06:35 | 56.24116 | 43.79075 | 268 ft | 12 kts | 293° |
| 2026-04-22 06:35 | 56.24080 | 43.78980 | 268 ft | 8 kts | 202° |
| 2026-04-22 06:36 | 56.23945 | 43.78929 | 268 ft | 42 kts | 191° |
| 2026-04-22 06:36 | 56.23477 | 43.78758 | 265 ft | 96 kts | 191° |
| 2026-04-22 06:36 | 56.22655 | 43.78468 | 265 ft | 143 kts | 191° |
| 2026-04-22 06:36 | 56.21562 | 43.78073 | 365 ft | 172 kts | 192° |
| 2026-04-22 06:37 | 56.20335 | 43.77582 | 752 ft | 188 kts | 193° |
| 2026-04-22 06:37 | 56.19059 | 43.77024 | 1369 ft | 197 kts | 193° |
| 2026-04-22 06:37 | 56.17675 | 43.76290 | 1727 ft | 218 kts | 203° |
| 2026-04-22 06:37 | 56.16224 | 43.75098 | 2277 ft | 240 kts | 206° |
| 2026-04-22 06:38 | 56.14686 | 43.73736 | 2872 ft | 254 kts | 208° |
| 2026-04-22 06:38 | 56.13096 | 43.72256 | 3680 ft | 259 kts | 209° |
| 2026-04-22 06:38 | 56.11490 | 43.70730 | 4366 ft | 268 kts | 209° |
| 2026-04-22 06:38 | 56.09855 | 43.69201 | 5341 ft | 264 kts | 209° |
| 2026-04-22 06:39 | 56.08169 | 43.67613 | 5939 ft | 275 kts | 209° |
| 2026-04-22 06:39 | 56.06492 | 43.66046 | 6861 ft | 277 kts | 209° |
| 2026-04-22 06:39 | 56.04752 | 43.64421 | 7545 ft | 281 kts | 209° |
| 2026-04-22 06:39 | 56.03000 | 43.62782 | 8281 ft | 286 kts | 209° |
| 2026-04-22 06:40 | 56.02396 | 43.62195 | 8518 ft | 288 kts | 213° |
| 2026-04-22 06:41 | 56.02167 | 43.61939 | 8606 ft | 288 kts | 217° |
| 2026-04-22 06:41 | 56.00696 | 43.59505 | 9270 ft | 289 kts | 231° |
| 2026-04-22 06:41 | 55.99378 | 43.56764 | 9926 ft | 293 kts | 232° |
| 2026-04-22 06:42 | 55.98020 | 43.53896 | 10178 ft | 313 kts | 232° |
| 2026-04-22 06:42 | 55.96572 | 43.50818 | 10375 ft | 333 kts | 232° |
| 2026-04-22 06:42 | 55.95064 | 43.47606 | 10566 ft | 352 kts | 231° |
| 2026-04-22 06:42 | 55.93448 | 43.44193 | 10860 ft | 367 kts | 231° |
| 2026-04-22 06:43 | 55.91778 | 43.40723 | 11485 ft | 370 kts | 231° |
| 2026-04-22 06:43 | 55.90081 | 43.37248 | 12211 ft | 371 kts | 230° |
| 2026-04-22 06:43 | 55.88378 | 43.33783 | 12903 ft | 373 kts | 230° |
| 2026-04-22 06:43 | 55.86650 | 43.30297 | 13577 ft | 376 kts | 230° |
| 2026-04-22 06:44 | 55.84908 | 43.26790 | 14232 ft | 379 kts | 230° |
| 2026-04-22 06:44 | 55.83153 | 43.23252 | 14834 ft | 383 kts | 230° |
| 2026-04-22 06:44 | 55.81400 | 43.19665 | 15479 ft | 385 kts | 234° |
| 2026-04-22 06:44 | 55.80105 | 43.15523 | 16053 ft | 384 kts | 255° |
| 2026-04-22 06:45 | 55.79728 | 43.10861 | 16621 ft | 382 kts | 273° |
| 2026-04-22 06:45 | 55.79907 | 43.06124 | 17206 ft | 385 kts | 277° |
| 2026-04-22 06:45 | 55.80195 | 43.01368 | 17751 ft | 389 kts | 278° |
| 2026-04-22 06:45 | 55.80517 | 42.96580 | 18356 ft | 391 kts | 278° |
| 2026-04-22 06:46 | 55.80852 | 42.91771 | 18949 ft | 394 kts | 278° |
| 2026-04-22 06:46 | 55.81179 | 42.86915 | 19479 ft | 397 kts | 278° |
| 2026-04-22 06:46 | 55.81489 | 42.82010 | 19973 ft | 401 kts | 277° |
| 2026-04-22 06:46 | 55.81775 | 42.77115 | 20497 ft | 404 kts | 277° |
| 2026-04-22 06:47 | 55.82048 | 42.72139 | 21019 ft | 406 kts | 276° |
| 2026-04-22 06:47 | 55.82314 | 42.67108 | 21507 ft | 409 kts | 276° |
| 2026-04-22 06:47 | 55.82578 | 42.62049 | 21967 ft | 412 kts | 276° |
| 2026-04-22 06:47 | 55.82849 | 42.56955 | 22417 ft | 415 kts | 276° |
| 2026-04-22 06:48 | 55.83124 | 42.51829 | 22889 ft | 418 kts | 276° |
| 2026-04-22 06:48 | 55.83405 | 42.46679 | 23340 ft | 419 kts | 276° |
| 2026-04-22 06:48 | 55.83686 | 42.41488 | 23736 ft | 423 kts | 276° |
| 2026-04-22 06:48 | 55.83930 | 42.36256 | 24151 ft | 426 kts | 275° |
| 2026-04-22 06:49 | 55.84067 | 42.32772 | 24435 ft | 427 kts | 275° |
| 2026-04-22 06:49 | 55.84273 | 42.27479 | 24852 ft | 430 kts | 275° |
| 2026-04-22 06:49 | 55.84501 | 42.22166 | 25237 ft | 433 kts | 276° |
| 2026-04-22 06:49 | 55.84754 | 42.16818 | 25588 ft | 435 kts | 276° |
| 2026-04-22 06:50 | 55.85028 | 42.11436 | 25916 ft | 438 kts | 276° |
| 2026-04-22 06:50 | 55.85315 | 42.06012 | 26201 ft | 441 kts | 276° |
| 2026-04-22 06:50 | 55.85610 | 42.00589 | 26682 ft | 440 kts | 276° |
| 2026-04-22 06:50 | 55.85901 | 41.95194 | 27204 ft | 437 kts | 276° |
| 2026-04-22 06:51 | 55.86189 | 41.89807 | 27629 ft | 436 kts | 276° |
| 2026-04-22 06:51 | 55.86473 | 41.84430 | 27994 ft | 437 kts | 276° |
| 2026-04-22 06:51 | 55.86749 | 41.79044 | 28396 ft | 436 kts | 274° |
| 2026-04-22 06:51 | 55.86783 | 41.73672 | 28782 ft | 436 kts | 268° |
| 2026-04-22 06:52 | 55.86593 | 41.68256 | 29135 ft | 437 kts | 266° |
| 2026-04-22 06:52 | 55.86351 | 41.62875 | 29474 ft | 436 kts | 266° |
| 2026-04-22 06:52 | 55.86116 | 41.57459 | 29653 ft | 441 kts | 266° |
| 2026-04-22 06:53 | 55.85705 | 41.46548 | 29782 ft | 440 kts | 268° |
| 2026-04-22 06:53 | 55.85364 | 41.35723 | 29809 ft | 436 kts | 268° |
| 2026-04-22 06:54 | 55.85050 | 41.25026 | 29815 ft | 436 kts | 268° |
| 2026-04-22 06:54 | 55.84720 | 41.14215 | 29824 ft | 439 kts | 268° |
| 2026-04-22 06:55 | 55.84384 | 41.03357 | 29825 ft | 440 kts | 268° |
| 2026-04-22 06:55 | 55.83960 | 40.92465 | 29826 ft | 441 kts | 268° |
| 2026-04-22 06:56 | 55.83526 | 40.81588 | 29827 ft | 442 kts | 268° |
| 2026-04-22 06:56 | 55.83154 | 40.70662 | 29826 ft | 443 kts | 269° |
| 2026-04-22 06:57 | 55.82792 | 40.59715 | 29833 ft | 444 kts | 268° |
| 2026-04-22 06:57 | 55.82337 | 40.48726 | 29834 ft | 446 kts | 268° |
| 2026-04-22 06:58 | 55.81841 | 40.37736 | 29834 ft | 445 kts | 268° |
| 2026-04-22 06:58 | 55.81367 | 40.26764 | 29833 ft | 445 kts | 268° |
| 2026-04-22 06:59 | 55.80914 | 40.15802 | 29713 ft | 449 kts | 269° |
| 2026-04-22 06:59 | 55.80688 | 40.10260 | 29076 ft | 458 kts | 268° |
| 2026-04-22 06:59 | 55.80455 | 40.04576 | 27810 ft | 467 kts | 268° |
| 2026-04-22 06:59 | 55.80214 | 39.98788 | 26759 ft | 470 kts | 268° |
| 2026-04-22 07:00 | 55.79971 | 39.93073 | 26135 ft | 455 kts | 268° |
| 2026-04-22 07:00 | 55.79732 | 39.87601 | 25504 ft | 436 kts | 268° |
| 2026-04-22 07:00 | 55.79497 | 39.82327 | 24867 ft | 419 kts | 268° |
| 2026-04-22 07:00 | 55.79233 | 39.77265 | 24323 ft | 404 kts | 266° |
| 2026-04-22 07:01 | 55.78910 | 39.72397 | 23863 ft | 389 kts | 265° |
| 2026-04-22 07:01 | 55.78569 | 39.67712 | 23336 ft | 376 kts | 265° |
| 2026-04-22 07:01 | 55.78235 | 39.63142 | 22683 ft | 372 kts | 265° |
| 2026-04-22 07:01 | 55.77906 | 39.58507 | 22247 ft | 381 kts | 265° |
| 2026-04-22 07:02 | 55.77583 | 39.53817 | 22044 ft | 381 kts | 265° |
| 2026-04-22 07:02 | 55.77268 | 39.49199 | 21936 ft | 372 kts | 265° |
| 2026-04-22 07:02 | 55.76963 | 39.44681 | 21890 ft | 366 kts | 265° |
| 2026-04-22 07:02 | 55.76664 | 39.40183 | 21874 ft | 367 kts | 265° |
| 2026-04-22 07:03 | 55.76360 | 39.35676 | 21862 ft | 369 kts | 265° |
| 2026-04-22 07:03 | 55.76045 | 39.31171 | 21851 ft | 369 kts | 265° |
| 2026-04-22 07:03 | 55.75722 | 39.26621 | 21857 ft | 372 kts | 265° |
| 2026-04-22 07:03 | 55.75398 | 39.22048 | 21857 ft | 374 kts | 265° |
| 2026-04-22 07:04 | 55.75070 | 39.17469 | 21848 ft | 374 kts | 265° |
| 2026-04-22 07:04 | 55.74748 | 39.12903 | 21848 ft | 372 kts | 265° |
| 2026-04-22 07:04 | 55.74424 | 39.08349 | 21854 ft | 372 kts | 265° |
| 2026-04-22 07:04 | 55.74100 | 39.03792 | 21849 ft | 373 kts | 265° |
| 2026-04-22 07:05 | 55.73774 | 38.99224 | 21852 ft | 374 kts | 265° |
| 2026-04-22 07:05 | 55.73453 | 38.94699 | 21848 ft | 374 kts | 266° |
| 2026-04-22 07:05 | 55.73381 | 38.90051 | 21858 ft | 372 kts | 276° |
| 2026-04-22 07:05 | 55.73584 | 38.85535 | 21851 ft | 372 kts | 278° |
| 2026-04-22 07:06 | 55.73850 | 38.80964 | 21852 ft | 372 kts | 278° |
| 2026-04-22 07:06 | 55.74119 | 38.76395 | 21843 ft | 373 kts | 278° |
| 2026-04-22 07:06 | 55.74389 | 38.71809 | 21850 ft | 373 kts | 278° |
| 2026-04-22 07:06 | 55.74646 | 38.67223 | 21852 ft | 374 kts | 278° |
| 2026-04-22 07:07 | 55.74894 | 38.62629 | 21851 ft | 374 kts | 278° |
| 2026-04-22 07:07 | 55.75218 | 38.58056 | 21853 ft | 371 kts | 289° |
| 2026-04-22 07:07 | 55.76238 | 38.53917 | 21874 ft | 365 kts | 306° |
| 2026-04-22 07:07 | 55.77656 | 38.50198 | 21772 ft | 357 kts | 309° |
| 2026-04-22 07:08 | 55.79092 | 38.46662 | 21124 ft | 350 kts | 309° |
| 2026-04-22 07:08 | 55.80522 | 38.43196 | 20463 ft | 343 kts | 309° |
| 2026-04-22 07:08 | 55.81904 | 38.39854 | 20139 ft | 328 kts | 309° |
| 2026-04-22 07:08 | 55.83235 | 38.36665 | 19958 ft | 315 kts | 310° |
| 2026-04-22 07:09 | 55.84569 | 38.33599 | 19307 ft | 313 kts | 311° |
| 2026-04-22 07:09 | 55.85905 | 38.30593 | 18573 ft | 315 kts | 311° |
| 2026-04-22 07:09 | 55.87266 | 38.27535 | 17819 ft | 315 kts | 311° |
| 2026-04-22 07:09 | 55.88623 | 38.24465 | 17072 ft | 315 kts | 310° |
| 2026-04-22 07:10 | 55.89966 | 38.21392 | 16314 ft | 314 kts | 310° |
| 2026-04-22 07:10 | 55.91300 | 38.18314 | 15548 ft | 312 kts | 310° |
| 2026-04-22 07:10 | 55.92624 | 38.15255 | 14805 ft | 311 kts | 309° |
| 2026-04-22 07:10 | 55.93942 | 38.12192 | 14059 ft | 311 kts | 309° |
| 2026-04-22 07:11 | 55.95260 | 38.09131 | 13317 ft | 310 kts | 309° |
| 2026-04-22 07:11 | 55.96562 | 38.06079 | 12560 ft | 308 kts | 309° |
| 2026-04-22 07:11 | 55.97852 | 38.03061 | 11806 ft | 305 kts | 309° |
| 2026-04-22 07:11 | 55.99137 | 38.00060 | 11056 ft | 303 kts | 309° |
| 2026-04-22 07:12 | 56.00358 | 37.96997 | 10290 ft | 302 kts | 298° |
| 2026-04-22 07:12 | 56.00973 | 37.93644 | 9850 ft | 295 kts | 283° |
| 2026-04-22 07:12 | 56.01324 | 37.90150 | 9691 ft | 278 kts | 281° |
| 2026-04-22 07:12 | 56.01632 | 37.86805 | 9436 ft | 272 kts | 282° |
| 2026-04-22 07:13 | 56.01956 | 37.83466 | 9074 ft | 272 kts | 282° |
| 2026-04-22 07:13 | 56.02281 | 37.80140 | 8705 ft | 270 kts | 284° |
| 2026-04-22 07:13 | 56.02982 | 37.77111 | 8323 ft | 263 kts | 307° |
| 2026-04-22 07:13 | 56.04225 | 37.74762 | 7945 ft | 259 kts | 327° |
| 2026-04-22 07:14 | 56.05787 | 37.73191 | 7574 ft | 257 kts | 335° |
| 2026-04-22 07:14 | 56.07404 | 37.71857 | 7211 ft | 256 kts | 336° |
| 2026-04-22 07:14 | 56.09031 | 37.70581 | 6841 ft | 255 kts | 337° |
| 2026-04-22 07:14 | 56.10660 | 37.69339 | 6486 ft | 254 kts | 338° |
| 2026-04-22 07:15 | 56.12290 | 37.68156 | 6102 ft | 252 kts | 338° |
| 2026-04-22 07:15 | 56.13964 | 37.67409 | 5727 ft | 249 kts | 4° |
| 2026-04-22 07:15 | 56.15529 | 37.68590 | 5374 ft | 251 kts | 45° |
| 2026-04-22 07:15 | 56.16294 | 37.71398 | 5079 ft | 259 kts | 84° |
| 2026-04-22 07:16 | 56.16022 | 37.74570 | 4777 ft | 261 kts | 109° |
| 2026-04-22 07:16 | 56.15167 | 37.77415 | 4598 ft | 260 kts | 126° |
| 2026-04-22 07:16 | 56.13819 | 37.79612 | 4316 ft | 263 kts | 153° |
| 2026-04-22 07:16 | 56.12061 | 37.80375 | 4065 ft | 264 kts | 184° |
| 2026-04-22 07:17 | 56.10340 | 37.79512 | 3948 ft | 261 kts | 211° |
| 2026-04-22 07:17 | 56.08780 | 37.77842 | 3802 ft | 262 kts | 211° |
| 2026-04-22 07:17 | 56.07154 | 37.76389 | 3713 ft | 256 kts | 204° |
| 2026-04-22 07:17 | 56.05558 | 37.75318 | 3532 ft | 239 kts | 199° |
| 2026-04-22 07:18 | 56.04019 | 37.74478 | 3250 ft | 223 kts | 197° |
| 2026-04-22 07:18 | 56.02646 | 37.73498 | 3080 ft | 205 kts | 220° |
| 2026-04-22 07:18 | 56.01894 | 37.71547 | 2995 ft | 182 kts | 252° |
| 2026-04-22 07:18 | 56.01484 | 37.69406 | 2970 ft | 181 kts | 252° |
| 2026-04-22 07:19 | 56.01036 | 37.67234 | 2885 ft | 187 kts | 252° |
| 2026-04-22 07:19 | 56.00639 | 37.65009 | 2764 ft | 188 kts | 255° |
| 2026-04-22 07:19 | 56.00305 | 37.62779 | 2673 ft | 184 kts | 257° |
| 2026-04-22 07:19 | 55.99988 | 37.60585 | 2536 ft | 181 kts | 256° |
| 2026-04-22 07:20 | 55.99673 | 37.58522 | 2449 ft | 164 kts | 257° |
| 2026-04-22 07:20 | 55.99389 | 37.56547 | 2128 ft | 163 kts | 257° |
| 2026-04-22 07:20 | 55.99098 | 37.54601 | 1826 ft | 161 kts | 257° |
| 2026-04-22 07:20 | 55.98810 | 37.52696 | 1632 ft | 155 kts | 257° |
| 2026-04-22 07:21 | 55.98531 | 37.50863 | 1410 ft | 152 kts | 257° |
| 2026-04-22 07:21 | 55.98269 | 37.49057 | 1195 ft | 149 kts | 258° |
| 2026-04-22 07:21 | 55.98020 | 37.47298 | 990 ft | 148 kts | 257° |
| 2026-04-22 07:21 | 55.97742 | 37.45515 | 803 ft | 145 kts | 256° |
| 2026-04-22 07:22 | 55.97481 | 37.43783 | 654 ft | 141 kts | 256° |
| 2026-04-22 07:22 | 55.97266 | 37.42296 | 639 ft | 103 kts | 254° |
| 2026-04-22 07:22 | 55.97143 | 37.41489 | 644 ft | 19 kts | 255° |
| 2026-04-22 07:22 | 55.97153 | 37.41355 | 640 ft | 5 kts | 316° |
| 2026-04-22 07:23 | 55.97180 | 37.41335 | 640 ft | 6 kts | 342° |
| 2026-04-22 07:23 | 55.97243 | 37.41301 | 640 ft | 13 kts | 343° |
| 2026-04-22 07:23 | 55.97336 | 37.41256 | 641 ft | 14 kts | 347° |
| 2026-04-22 07:23 | 55.97444 | 37.41212 | 640 ft | 16 kts | 347° |
| 2026-04-22 07:24 | 55.97538 | 37.41172 | 640 ft | 14 kts | 347° |
| 2026-04-22 07:24 | 55.97606 | 37.41157 | 640 ft | 2 kts | 25° |
| 2026-04-22 07:24 | 55.97616 | 37.41179 | 640 ft | 5 kts | 55° |
| 2026-04-22 07:24 | 55.97638 | 37.41281 | 640 ft | 11 kts | 74° |
| 2026-04-22 07:25 | 55.97661 | 37.41435 | 640 ft | 15 kts | 74° |
| 2026-04-22 07:25 | 55.97692 | 37.41630 | 640 ft | 18 kts | 75° |
| 2026-04-22 07:25 | 55.97724 | 37.41842 | 640 ft | 18 kts | 75° |
| 2026-04-22 07:25 | 55.97755 | 37.42052 | 640 ft | 17 kts | 75° |
| 2026-04-22 07:26 | 55.97785 | 37.42252 | 640 ft | 16 kts | 75° |
| 2026-04-22 07:26 | 55.97810 | 37.42333 | 640 ft | 2 kts | 29° |
| 2026-04-22 07:26 | 55.97825 | 37.42342 | 640 ft | 1 kts | 5° |
| 2026-04-22 07:26 | 55.97855 | 37.42336 | 640 ft | 6 kts | 348° |
| 2026-04-22 07:27 | 55.97893 | 37.42311 | 640 ft | 5 kts | 311° |
| 2026-04-22 07:27 | 55.97896 | 37.42260 | 640 ft | 5 kts | 259° |
| 2026-04-22 07:27 | 55.97888 | 37.42199 | 640 ft | 5 kts | 255° |
| 2026-04-22 07:27 | 55.97882 | 37.42160 | 640 ft | 0 kts | 255° |